sensor_id;sensor_type;location;lat;lon;timestamp;pressure;altitude;pressure_sealevel;temperature;humidity
33795;BME280;51430;52.242;21.118;2023-05-23T00:02:41;100328.11;;;12.39;81.58
33795;BME280;51430;52.242;21.118;2023-05-23T00:05:08;100327.59;;;12.33;81.80
33795;BME280;51430;52.242;21.118;2023-05-23T00:07:34;100326.06;;;12.45;81.80
33795;BME280;51430;52.242;21.118;2023-05-23T00:10:01;100325.05;;;12.50;81.62
33795;BME280;51430;52.242;21.118;2023-05-23T00:12:27;100325.71;;;12.53;81.52
33795;BME280;51430;52.242;21.118;2023-05-23T00:17:22;100322.33;;;12.47;81.37
33795;BME280;51430;52.242;21.118;2023-05-23T00:21:05;100321.95;;;12.27;82.24
33795;BME280;51430;52.242;21.118;2023-05-23T00:24:39;100319.39;;;12.16;82.61
33795;BME280;51430;52.242;21.118;2023-05-23T00:28:46;100318.27;;;12.11;82.92
33795;BME280;51430;52.242;21.118;2023-05-23T00:47:19;100310.88;;;12.07;82.98
33795;BME280;51430;52.242;21.118;2023-05-23T00:50:08;100308.43;;;11.93;83.16
33795;BME280;51430;52.242;21.118;2023-05-23T01:18:16;100314.36;;;11.80;83.48
33795;BME280;51430;52.242;21.118;2023-05-23T01:21:06;100311.98;;;11.57;83.96
33795;BME280;51430;52.242;21.118;2023-05-23T01:25:06;100313.77;;;11.37;84.54
33795;BME280;51430;52.242;21.118;2023-05-23T01:31:52;100308.65;;;11.18;85.70
33795;BME280;51430;52.242;21.118;2023-05-23T01:34:52;100314.42;;;11.25;85.48
33795;BME280;51430;52.242;21.118;2023-05-23T01:38:29;100309.13;;;11.26;85.54
33795;BME280;51430;52.242;21.118;2023-05-23T01:42:10;100304.04;;;11.15;85.89
33795;BME280;51430;52.242;21.118;2023-05-23T01:51:48;100300.44;;;10.90;87.68
33795;BME280;51430;52.242;21.118;2023-05-23T01:55:08;100295.17;;;10.79;88.36
33795;BME280;51430;52.242;21.118;2023-05-23T01:58:51;100287.94;;;10.76;89.10
33795;BME280;51430;52.242;21.118;2023-05-23T02:02:47;100291.89;;;10.79;89.30
33795;BME280;51430;52.242;21.118;2023-05-23T02:06:28;100290.84;;;10.73;89.52
33795;BME280;51430;52.242;21.118;2023-05-23T02:09:49;100295.67;;;10.64;89.87
33795;BME280;51430;52.242;21.118;2023-05-23T02:13:21;100291.47;;;10.62;90.30
33795;BME280;51430;52.242;21.118;2023-05-23T02:17:23;100283.82;;;10.67;90.30
33795;BME280;51430;52.242;21.118;2023-05-23T02:20:36;100278.59;;;10.56;90.28
33795;BME280;51430;52.242;21.118;2023-05-23T02:24:17;100278.83;;;10.50;90.46
33795;BME280;51430;52.242;21.118;2023-05-23T02:27:57;100272.63;;;10.49;90.75
33795;BME280;51430;52.242;21.118;2023-05-23T02:31:37;100270.15;;;10.45;90.87
33795;BME280;51430;52.242;21.118;2023-05-23T02:35:15;100267.87;;;10.43;90.81
33795;BME280;51430;52.242;21.118;2023-05-23T02:44:11;100263.38;;;10.36;90.93
33795;BME280;51430;52.242;21.118;2023-05-23T02:47:30;100259.74;;;10.33;91.29
33795;BME280;51430;52.242;21.118;2023-05-23T02:51:13;100261.23;;;10.32;91.30
33795;BME280;51430;52.242;21.118;2023-05-23T02:54:44;100259.81;;;10.30;91.54
33795;BME280;51430;52.242;21.118;2023-05-23T02:58:22;100260.77;;;10.31;91.44
33795;BME280;51430;52.242;21.118;2023-05-23T03:02:00;100263.29;;;10.32;91.47
33795;BME280;51430;52.242;21.118;2023-05-23T03:06:03;100260.27;;;10.36;91.60
33795;BME280;51430;52.242;21.118;2023-05-23T03:09:19;100259.72;;;10.31;91.71
33795;BME280;51430;52.242;21.118;2023-05-23T03:24:05;100255.73;;;10.88;90.84
33795;BME280;51430;52.242;21.118;2023-05-23T03:52:47;100262.41;;;11.73;89.39
33795;BME280;51430;52.242;21.118;2023-05-23T03:55:44;100258.48;;;11.80;89.34
33795;BME280;51430;52.242;21.118;2023-05-23T04:27:43;100244.38;;;13.17;85.63
33795;BME280;51430;52.242;21.118;2023-05-23T04:41:43;100244.46;;;14.06;80.84
33795;BME280;51430;52.242;21.118;2023-05-23T04:55:16;100241.83;;;15.04;77.99
33795;BME280;51430;52.242;21.118;2023-05-23T04:57:43;100242.94;;;15.22;76.13
33795;BME280;51430;52.242;21.118;2023-05-23T05:00:12;100245.39;;;15.51;75.63
33795;BME280;51430;52.242;21.118;2023-05-23T05:02:40;100245.72;;;15.71;74.26
33795;BME280;51430;52.242;21.118;2023-05-23T05:05:08;100244.55;;;15.84;72.34
33795;BME280;51430;52.242;21.118;2023-05-23T05:07:36;100244.14;;;16.00;71.28
33795;BME280;51430;52.242;21.118;2023-05-23T05:10:03;100244.11;;;16.13;70.47
33795;BME280;51430;52.242;21.118;2023-05-23T05:12:30;100240.09;;;16.26;69.70
33795;BME280;51430;52.242;21.118;2023-05-23T05:14:57;100234.15;;;16.41;69.74
33795;BME280;51430;52.242;21.118;2023-05-23T05:17:24;100233.55;;;16.47;68.95
33795;BME280;51430;52.242;21.118;2023-05-23T05:19:55;100234.34;;;16.68;68.98
33795;BME280;51430;52.242;21.118;2023-05-23T05:22:22;100230.86;;;16.88;68.89
33795;BME280;51430;52.242;21.118;2023-05-23T05:24:49;100231.46;;;17.05;68.08
33795;BME280;51430;52.242;21.118;2023-05-23T05:27:17;100230.32;;;17.19;67.38
33795;BME280;51430;52.242;21.118;2023-05-23T05:29:43;100230.73;;;17.34;67.33
33795;BME280;51430;52.242;21.118;2023-05-23T05:32:11;100230.85;;;17.46;66.47
33795;BME280;51430;52.242;21.118;2023-05-23T05:34:37;100227.05;;;17.49;66.08
33795;BME280;51430;52.242;21.118;2023-05-23T05:37:04;100228.73;;;17.66;66.23
33795;BME280;51430;52.242;21.118;2023-05-23T05:39:31;100233.55;;;17.91;65.56
33795;BME280;51430;52.242;21.118;2023-05-23T05:41:57;100234.46;;;18.26;64.78
33795;BME280;51430;52.242;21.118;2023-05-23T05:44:26;100234.95;;;18.69;61.48
33795;BME280;51430;52.242;21.118;2023-05-23T05:46:53;100232.15;;;19.17;58.28
33795;BME280;51430;52.242;21.118;2023-05-23T05:49:20;100236.55;;;19.71;55.95
33795;BME280;51430;52.242;21.118;2023-05-23T05:51:46;100238.39;;;20.39;54.20
33795;BME280;51430;52.242;21.118;2023-05-23T05:54:13;100239.01;;;21.09;53.11
33795;BME280;51430;52.242;21.118;2023-05-23T05:56:39;100238.54;;;21.55;51.57
33795;BME280;51430;52.242;21.118;2023-05-23T05:59:07;100239.36;;;21.60;50.22
33795;BME280;51430;52.242;21.118;2023-05-23T06:01:33;100239.76;;;21.65;49.23
33795;BME280;51430;52.242;21.118;2023-05-23T06:04:00;100236.58;;;21.99;49.01
33795;BME280;51430;52.242;21.118;2023-05-23T06:06:27;100236.91;;;22.53;48.91
33795;BME280;51430;52.242;21.118;2023-05-23T06:08:53;100234.94;;;22.85;46.16
33795;BME280;51430;52.242;21.118;2023-05-23T06:11:19;100234.19;;;22.82;44.80
33795;BME280;51430;52.242;21.118;2023-05-23T06:13:46;100234.30;;;22.56;45.10
33795;BME280;51430;52.242;21.118;2023-05-23T06:16:14;100232.02;;;23.07;45.18
33795;BME280;51430;52.242;21.118;2023-05-23T06:18:40;100231.73;;;23.44;43.80
33795;BME280;51430;52.242;21.118;2023-05-23T06:21:08;100229.36;;;23.51;41.92
33795;BME280;51430;52.242;21.118;2023-05-23T06:23:35;100228.79;;;23.73;41.76
33795;BME280;51430;52.242;21.118;2023-05-23T06:26:01;100228.77;;;24.04;40.21
33795;BME280;51430;52.242;21.118;2023-05-23T06:28:28;100226.52;;;23.91;40.14
33795;BME280;51430;52.242;21.118;2023-05-23T06:30:54;100224.13;;;24.02;39.68
33795;BME280;51430;52.242;21.118;2023-05-23T06:33:21;100223.86;;;23.93;39.48
33795;BME280;51430;52.242;21.118;2023-05-23T06:35:47;100226.19;;;24.02;39.73
33795;BME280;51430;52.242;21.118;2023-05-23T06:38:13;100223.73;;;23.90;39.30
33795;BME280;51430;52.242;21.118;2023-05-23T06:40:43;100223.64;;;24.15;39.53
33795;BME280;51430;52.242;21.118;2023-05-23T06:43:09;100222.19;;;24.68;39.79
33795;BME280;51430;52.242;21.118;2023-05-23T06:45:36;100223.36;;;25.21;39.44
33795;BME280;51430;52.242;21.118;2023-05-23T06:48:03;100220.97;;;25.92;38.95
33795;BME280;51430;52.242;21.118;2023-05-23T06:50:30;100218.17;;;26.09;36.84
33795;BME280;51430;52.242;21.118;2023-05-23T06:52:57;100215.80;;;25.84;37.43
33795;BME280;51430;52.242;21.118;2023-05-23T06:55:23;100211.44;;;25.95;36.64
33795;BME280;51430;52.242;21.118;2023-05-23T06:57:50;100206.58;;;26.20;36.68
33795;BME280;51430;52.242;21.118;2023-05-23T07:00:17;100205.64;;;26.33;36.23
33795;BME280;51430;52.242;21.118;2023-05-23T07:02:44;100199.01;;;26.27;35.87
33795;BME280;51430;52.242;21.118;2023-05-23T07:05:11;100198.98;;;26.45;35.61
33795;BME280;51430;52.242;21.118;2023-05-23T07:07:38;100197.60;;;26.54;35.77
33795;BME280;51430;52.242;21.118;2023-05-23T07:10:04;100191.73;;;26.69;36.20
33795;BME280;51430;52.242;21.118;2023-05-23T07:12:31;100189.96;;;27.02;34.88
33795;BME280;51430;52.242;21.118;2023-05-23T07:15:01;100191.59;;;26.41;33.73
33795;BME280;51430;52.242;21.118;2023-05-23T07:17:27;100187.12;;;25.63;35.27
33795;BME280;51430;52.242;21.118;2023-05-23T07:19:55;100183.42;;;26.07;34.97
33795;BME280;51430;52.242;21.118;2023-05-23T07:22:21;100187.80;;;26.34;34.06
33795;BME280;51430;52.242;21.118;2023-05-23T07:24:48;100187.13;;;26.04;34.48
33795;BME280;51430;52.242;21.118;2023-05-23T07:27:14;100180.52;;;26.08;34.62
33795;BME280;51430;52.242;21.118;2023-05-23T07:29:41;100183.14;;;26.67;34.14
33795;BME280;51430;52.242;21.118;2023-05-23T07:32:07;100183.83;;;27.10;33.47
33795;BME280;51430;52.242;21.118;2023-05-23T07:34:34;100185.60;;;27.67;32.47
33795;BME280;51430;52.242;21.118;2023-05-23T07:37:00;100182.10;;;27.44;31.73
33795;BME280;51430;52.242;21.118;2023-05-23T07:39:27;100181.33;;;27.95;32.07
33795;BME280;51430;52.242;21.118;2023-05-23T07:41:53;100182.07;;;28.05;30.94
33795;BME280;51430;52.242;21.118;2023-05-23T07:44:20;100176.77;;;27.69;31.66
33795;BME280;51430;52.242;21.118;2023-05-23T07:46:50;100180.09;;;27.87;31.84
33795;BME280;51430;52.242;21.118;2023-05-23T07:49:17;100179.40;;;28.04;31.35
33795;BME280;51430;52.242;21.118;2023-05-23T07:51:43;100175.73;;;28.35;30.17
33795;BME280;51430;52.242;21.118;2023-05-23T07:54:10;100172.83;;;28.10;31.25
33795;BME280;51430;52.242;21.118;2023-05-23T07:56:36;100170.80;;;28.32;30.59
33795;BME280;51430;52.242;21.118;2023-05-23T07:59:05;100168.02;;;28.85;30.82
33795;BME280;51430;52.242;21.118;2023-05-23T08:01:33;100168.36;;;29.48;29.78
33795;BME280;51430;52.242;21.118;2023-05-23T08:04:01;100168.11;;;29.40;29.04
33795;BME280;51430;52.242;21.118;2023-05-23T08:06:29;100168.05;;;29.10;28.29
33795;BME280;51430;52.242;21.118;2023-05-23T08:08:56;100169.25;;;28.90;29.15
33795;BME280;51430;52.242;21.118;2023-05-23T08:11:23;100160.30;;;28.54;28.99
33795;BME280;51430;52.242;21.118;2023-05-23T08:13:49;100156.64;;;29.08;29.91
33795;BME280;51430;52.242;21.118;2023-05-23T08:16:16;100159.88;;;29.83;29.36
33795;BME280;51430;52.242;21.118;2023-05-23T08:18:42;100164.96;;;29.69;28.41
33795;BME280;51430;52.242;21.118;2023-05-23T08:21:09;100167.10;;;29.67;28.43
33795;BME280;51430;52.242;21.118;2023-05-23T08:23:35;100163.33;;;29.83;28.18
33795;BME280;51430;52.242;21.118;2023-05-23T08:26:01;100164.91;;;29.77;27.41
33795;BME280;51430;52.242;21.118;2023-05-23T08:28:28;100163.28;;;30.01;27.72
33795;BME280;51430;52.242;21.118;2023-05-23T08:30:54;100164.61;;;30.03;27.16
33795;BME280;51430;52.242;21.118;2023-05-23T08:35:53;100158.48;;;29.14;27.13
33795;BME280;51430;52.242;21.118;2023-05-23T08:38:21;100157.40;;;29.16;27.65
33795;BME280;51430;52.242;21.118;2023-05-23T08:40:50;100160.06;;;30.16;27.21
33795;BME280;51430;52.242;21.118;2023-05-23T08:43:20;100153.16;;;30.71;25.68
33795;BME280;51430;52.242;21.118;2023-05-23T08:45:50;100150.88;;;31.34;25.43
33795;BME280;51430;52.242;21.118;2023-05-23T08:48:19;100153.86;;;31.66;25.08
33795;BME280;51430;52.242;21.118;2023-05-23T08:50:50;100151.45;;;31.58;24.95
33795;BME280;51430;52.242;21.118;2023-05-23T08:53:21;100150.10;;;31.31;25.04
33795;BME280;51430;52.242;21.118;2023-05-23T08:55:50;100152.35;;;31.25;25.16
33795;BME280;51430;52.242;21.118;2023-05-23T08:58:22;100145.11;;;31.77;24.96
33795;BME280;51430;52.242;21.118;2023-05-23T09:00:56;100145.23;;;31.70;24.29
33795;BME280;51430;52.242;21.118;2023-05-23T09:03:27;100140.98;;;31.27;25.43
33795;BME280;51430;52.242;21.118;2023-05-23T09:06:05;100144.08;;;30.28;26.39
33795;BME280;51430;52.242;21.118;2023-05-23T09:08:34;100138.23;;;31.31;25.89
33795;BME280;51430;52.242;21.118;2023-05-23T09:11:03;100141.54;;;31.56;25.47
33795;BME280;51430;52.242;21.118;2023-05-23T09:13:32;100141.70;;;31.87;25.00
33795;BME280;51430;52.242;21.118;2023-05-23T09:16:05;100142.44;;;31.19;24.72
33795;BME280;51430;52.242;21.118;2023-05-23T09:18:35;100142.09;;;31.60;25.47
33795;BME280;51430;52.242;21.118;2023-05-23T09:21:34;100135.66;;;32.20;24.31
33795;BME280;51430;52.242;21.118;2023-05-23T09:24:02;100136.08;;;31.58;24.53
33795;BME280;51430;52.242;21.118;2023-05-23T09:26:30;100138.00;;;31.23;24.77
33795;BME280;51430;52.242;21.118;2023-05-23T09:28:59;100133.11;;;30.97;25.64
33795;BME280;51430;52.242;21.118;2023-05-23T09:31:30;100137.50;;;30.81;25.63
33795;BME280;51430;52.242;21.118;2023-05-23T09:36:34;100135.98;;;32.65;23.84
33795;BME280;51430;52.242;21.118;2023-05-23T09:40:34;100131.80;;;33.01;24.12
33795;BME280;51430;52.242;21.118;2023-05-23T09:43:52;100130.29;;;31.69;24.81
33795;BME280;51430;52.242;21.118;2023-05-23T09:46:21;100132.53;;;31.48;25.20
33795;BME280;51430;52.242;21.118;2023-05-23T09:48:50;100127.58;;;32.46;24.42
33795;BME280;51430;52.242;21.118;2023-05-23T09:51:20;100129.01;;;32.69;24.21
33795;BME280;51430;52.242;21.118;2023-05-23T09:53:49;100122.63;;;31.53;24.84
33795;BME280;51430;52.242;21.118;2023-05-23T09:56:19;100120.91;;;32.13;24.91
33795;BME280;51430;52.242;21.118;2023-05-23T09:58:48;100123.06;;;33.06;23.68
33795;BME280;51430;52.242;21.118;2023-05-23T10:01:16;100123.13;;;31.50;24.39
33795;BME280;51430;52.242;21.118;2023-05-23T10:03:52;100122.01;;;30.17;25.46
33795;BME280;51430;52.242;21.118;2023-05-23T10:06:31;100119.16;;;30.30;25.65
33795;BME280;51430;52.242;21.118;2023-05-23T10:09:05;100120.28;;;31.10;25.46
33795;BME280;51430;52.242;21.118;2023-05-23T10:14:03;100125.05;;;34.07;23.28
33795;BME280;51430;52.242;21.118;2023-05-23T10:23:51;100120.31;;;32.98;23.27
33795;BME280;51430;52.242;21.118;2023-05-23T10:26:20;100116.33;;;31.35;24.91
33795;BME280;51430;52.242;21.118;2023-05-23T10:28:49;100108.86;;;30.79;25.99
33795;BME280;51430;52.242;21.118;2023-05-23T10:31:21;100110.70;;;30.47;26.11
33795;BME280;51430;52.242;21.118;2023-05-23T10:33:57;100112.60;;;30.89;25.93
33795;BME280;51430;52.242;21.118;2023-05-23T10:36:50;100112.88;;;32.40;24.34
33795;BME280;51430;52.242;21.118;2023-05-23T10:39:40;100111.79;;;32.11;24.46
33795;BME280;51430;52.242;21.118;2023-05-23T10:44:52;100112.73;;;34.55;23.46
33795;BME280;51430;52.242;21.118;2023-05-23T10:47:26;100112.34;;;34.07;21.99
33795;BME280;51430;52.242;21.118;2023-05-23T10:49:57;100104.48;;;31.86;23.63
33795;BME280;51430;52.242;21.118;2023-05-23T10:52:25;100105.75;;;30.96;24.41
33795;BME280;51430;52.242;21.118;2023-05-23T10:55:00;100108.55;;;30.51;24.67
33795;BME280;51430;52.242;21.118;2023-05-23T10:57:28;100103.30;;;30.59;24.74
33795;BME280;51430;52.242;21.118;2023-05-23T10:59:56;100104.35;;;31.45;24.83
33795;BME280;51430;52.242;21.118;2023-05-23T11:02:27;100099.61;;;31.67;24.52
33795;BME280;51430;52.242;21.118;2023-05-23T11:05:21;100097.70;;;33.08;24.36
33795;BME280;51430;52.242;21.118;2023-05-23T11:08:06;100101.55;;;34.16;22.72
33795;BME280;51430;52.242;21.118;2023-05-23T11:11:01;100099.96;;;33.62;22.91
33795;BME280;51430;52.242;21.118;2023-05-23T11:16:23;100095.16;;;35.67;21.87
33795;BME280;51430;52.242;21.118;2023-05-23T11:21:51;100091.63;;;35.79;21.14
33795;BME280;51430;52.242;21.118;2023-05-23T11:24:21;100092.27;;;35.81;21.39
33795;BME280;51430;52.242;21.118;2023-05-23T11:26:59;100085.06;;;35.19;21.27
33795;BME280;51430;52.242;21.118;2023-05-23T11:29:29;100077.01;;;32.48;23.39
33795;BME280;51430;52.242;21.118;2023-05-23T11:31:59;100068.07;;;32.25;23.78
33795;BME280;51430;52.242;21.118;2023-05-23T11:34:31;100073.45;;;33.57;23.47
33795;BME280;51430;52.242;21.118;2023-05-23T11:36:59;100065.52;;;32.65;23.82
33795;BME280;51430;52.242;21.118;2023-05-23T11:39:27;100067.04;;;31.76;25.39
33795;BME280;51430;52.242;21.118;2023-05-23T11:42:02;100066.34;;;30.76;25.35
33795;BME280;51430;52.242;21.118;2023-05-23T11:44:30;100068.65;;;29.79;26.53
33795;BME280;51430;52.242;21.118;2023-05-23T11:47:02;100062.75;;;30.90;26.08
33795;BME280;51430;52.242;21.118;2023-05-23T11:49:33;100062.51;;;32.09;24.68
33795;BME280;51430;52.242;21.118;2023-05-23T11:52:01;100056.54;;;31.91;24.52
33795;BME280;51430;52.242;21.118;2023-05-23T11:54:34;100050.80;;;32.03;25.03
33795;BME280;51430;52.242;21.118;2023-05-23T11:57:07;100053.24;;;32.19;25.24
33795;BME280;51430;52.242;21.118;2023-05-23T11:59:35;100051.84;;;32.28;24.89
33795;BME280;51430;52.242;21.118;2023-05-23T12:02:05;100052.12;;;32.40;24.25
33795;BME280;51430;52.242;21.118;2023-05-23T12:04:34;100053.73;;;32.18;24.00
33795;BME280;51430;52.242;21.118;2023-05-23T12:07:05;100050.64;;;32.06;24.43
33795;BME280;51430;52.242;21.118;2023-05-23T12:09:43;100049.67;;;32.07;23.94
33795;BME280;51430;52.242;21.118;2023-05-23T12:12:12;100053.08;;;33.06;23.33
33795;BME280;51430;52.242;21.118;2023-05-23T12:14:40;100056.11;;;33.64;23.46
33795;BME280;51430;52.242;21.118;2023-05-23T12:17:12;100054.49;;;34.21;22.82
33795;BME280;51430;52.242;21.118;2023-05-23T12:19:44;100051.41;;;34.38;22.26
33795;BME280;51430;52.242;21.118;2023-05-23T12:22:12;100053.02;;;33.69;22.86
33795;BME280;51430;52.242;21.118;2023-05-23T12:24:44;100038.21;;;33.33;24.15
33795;BME280;51430;52.242;21.118;2023-05-23T12:27:15;100040.44;;;32.58;24.34
33795;BME280;51430;52.242;21.118;2023-05-23T12:29:49;100042.19;;;32.79;24.34
33795;BME280;51430;52.242;21.118;2023-05-23T12:32:18;100049.25;;;34.09;23.20
33795;BME280;51430;52.242;21.118;2023-05-23T12:34:48;100046.02;;;34.81;22.69
33795;BME280;51430;52.242;21.118;2023-05-23T12:37:17;100044.98;;;35.01;22.15
33795;BME280;51430;52.242;21.118;2023-05-23T12:39:47;100048.87;;;34.02;22.50
33795;BME280;51430;52.242;21.118;2023-05-23T12:42:15;100036.02;;;32.59;23.61
33795;BME280;51430;52.242;21.118;2023-05-23T12:44:43;100032.41;;;32.11;24.77
33795;BME280;51430;52.242;21.118;2023-05-23T12:47:12;100039.61;;;33.33;23.91
33795;BME280;51430;52.242;21.118;2023-05-23T12:49:42;100040.16;;;33.70;23.51
33795;BME280;51430;52.242;21.118;2023-05-23T12:52:11;100036.34;;;34.09;23.79
33795;BME280;51430;52.242;21.118;2023-05-23T12:54:39;100034.70;;;33.45;24.11
33795;BME280;51430;52.242;21.118;2023-05-23T12:57:07;100030.29;;;33.31;24.67
33795;BME280;51430;52.242;21.118;2023-05-23T12:59:35;100030.42;;;33.48;23.87
33795;BME280;51430;52.242;21.118;2023-05-23T13:02:02;100019.23;;;33.15;24.44
33795;BME280;51430;52.242;21.118;2023-05-23T13:04:30;99994.73;;;32.89;24.72
33795;BME280;51430;52.242;21.118;2023-05-23T13:06:59;100016.27;;;31.33;25.01
33795;BME280;51430;52.242;21.118;2023-05-23T13:09:27;100014.91;;;31.07;25.93
33795;BME280;51430;52.242;21.118;2023-05-23T13:11:55;100011.39;;;31.47;26.01
33795;BME280;51430;52.242;21.118;2023-05-23T13:14:23;100006.45;;;31.61;25.64
33795;BME280;51430;52.242;21.118;2023-05-23T13:16:51;100010.03;;;32.04;25.18
33795;BME280;51430;52.242;21.118;2023-05-23T13:19:19;100002.92;;;32.09;24.86
33795;BME280;51430;52.242;21.118;2023-05-23T13:21:47;100006.76;;;32.66;24.49
33795;BME280;51430;52.242;21.118;2023-05-23T13:24:16;100006.20;;;33.22;23.46
33795;BME280;51430;52.242;21.118;2023-05-23T13:26:44;100003.05;;;33.85;23.68
33795;BME280;51430;52.242;21.118;2023-05-23T13:29:12;99999.96;;;34.59;23.18
33795;BME280;51430;52.242;21.118;2023-05-23T13:31:40;100007.80;;;34.46;22.66
33795;BME280;51430;52.242;21.118;2023-05-23T13:34:08;100005.45;;;34.22;23.64
33795;BME280;51430;52.242;21.118;2023-05-23T13:36:36;100003.92;;;34.87;23.11
33795;BME280;51430;52.242;21.118;2023-05-23T13:39:04;100004.91;;;35.32;22.83
33795;BME280;51430;52.242;21.118;2023-05-23T13:42:42;100006.83;;;34.15;22.73
33795;BME280;51430;52.242;21.118;2023-05-23T13:46:14;100002.73;;;33.26;23.68
33795;BME280;51430;52.242;21.118;2023-05-23T14:00:22;99982.65;;;30.72;26.22
33795;BME280;51430;52.242;21.118;2023-05-23T14:03:33;99980.42;;;30.34;27.21
33795;BME280;51430;52.242;21.118;2023-05-23T14:06:45;99976.95;;;31.29;26.13
33795;BME280;51430;52.242;21.118;2023-05-23T14:09:13;99980.33;;;32.20;25.81
33795;BME280;51430;52.242;21.118;2023-05-23T14:11:43;99983.25;;;32.95;24.88
33795;BME280;51430;52.242;21.118;2023-05-23T14:14:37;99986.29;;;33.52;24.43
33795;BME280;51430;52.242;21.118;2023-05-23T14:17:05;99986.81;;;34.05;23.16
33795;BME280;51430;52.242;21.118;2023-05-23T14:21:03;99988.41;;;33.49;23.33
33795;BME280;51430;52.242;21.118;2023-05-23T14:24:15;99983.38;;;33.96;23.87
33795;BME280;51430;52.242;21.118;2023-05-23T14:28:12;99974.17;;;35.18;23.16
33795;BME280;51430;52.242;21.118;2023-05-23T14:31:36;99973.77;;;34.35;23.12
33795;BME280;51430;52.242;21.118;2023-05-23T14:35:14;99971.85;;;34.17;23.02
33795;BME280;51430;52.242;21.118;2023-05-23T14:49:34;99966.70;;;32.92;24.34
33795;BME280;51430;52.242;21.118;2023-05-23T14:52:00;99970.45;;;33.39;23.95
33795;BME280;51430;52.242;21.118;2023-05-23T14:54:27;99968.23;;;33.73;24.05
33795;BME280;51430;52.242;21.118;2023-05-23T14:56:54;99966.76;;;33.79;23.60
33795;BME280;51430;52.242;21.118;2023-05-23T14:59:22;99963.59;;;33.89;23.60
33795;BME280;51430;52.242;21.118;2023-05-23T15:01:50;99967.92;;;33.24;23.88
33795;BME280;51430;52.242;21.118;2023-05-23T15:04:18;99969.45;;;33.17;23.69
33795;BME280;51430;52.242;21.118;2023-05-23T15:07:07;99968.55;;;33.98;23.05
33795;BME280;51430;52.242;21.118;2023-05-23T15:11:19;99963.44;;;33.77;22.79
33795;BME280;51430;52.242;21.118;2023-05-23T15:14:59;99959.35;;;34.05;23.22
33795;BME280;51430;52.242;21.118;2023-05-23T15:28:39;99954.59;;;32.95;23.12
33795;BME280;51430;52.242;21.118;2023-05-23T15:31:07;99958.17;;;34.83;22.21
33795;BME280;51430;52.242;21.118;2023-05-23T15:33:36;99961.20;;;36.53;20.54
33795;BME280;51430;52.242;21.118;2023-05-23T15:36:04;99965.84;;;37.96;19.37
33795;BME280;51430;52.242;21.118;2023-05-23T15:38:32;99963.89;;;38.67;18.55
33795;BME280;51430;52.242;21.118;2023-05-23T15:41:02;99961.65;;;38.43;19.20
33795;BME280;51430;52.242;21.118;2023-05-23T15:43:32;99960.79;;;37.79;19.47
33795;BME280;51430;52.242;21.118;2023-05-23T15:46:03;99951.80;;;35.30;21.68
33795;BME280;51430;52.242;21.118;2023-05-23T15:48:31;99945.34;;;33.74;23.32
33795;BME280;51430;52.242;21.118;2023-05-23T15:50:59;99940.64;;;33.96;22.82
33795;BME280;51430;52.242;21.118;2023-05-23T15:53:27;99938.87;;;34.30;22.00
33795;BME280;51430;52.242;21.118;2023-05-23T15:55:58;99936.63;;;32.72;23.67
33795;BME280;51430;52.242;21.118;2023-05-23T15:58:26;99931.30;;;30.84;25.52
33795;BME280;51430;52.242;21.118;2023-05-23T16:00:54;99925.27;;;29.99;26.14
33795;BME280;51430;52.242;21.118;2023-05-23T16:03:22;99919.45;;;29.44;27.16
33795;BME280;51430;52.242;21.118;2023-05-23T16:05:51;99920.21;;;29.22;27.58
33795;BME280;51430;52.242;21.118;2023-05-23T16:08:21;99920.29;;;29.24;28.30
33795;BME280;51430;52.242;21.118;2023-05-23T16:10:49;99914.84;;;29.23;28.30
33795;BME280;51430;52.242;21.118;2023-05-23T16:13:19;99914.20;;;29.24;28.42
33795;BME280;51430;52.242;21.118;2023-05-23T16:15:47;99911.48;;;29.00;28.68
33795;BME280;51430;52.242;21.118;2023-05-23T16:18:15;99912.83;;;28.97;28.61
33795;BME280;51430;52.242;21.118;2023-05-23T16:20:43;99909.97;;;28.89;28.50
33795;BME280;51430;52.242;21.118;2023-05-23T16:23:11;99907.91;;;28.40;28.26
33795;BME280;51430;52.242;21.118;2023-05-23T16:25:39;99903.27;;;27.78;29.10
33795;BME280;51430;52.242;21.118;2023-05-23T16:28:07;99901.10;;;27.45;29.56
33795;BME280;51430;52.242;21.118;2023-05-23T16:30:36;99897.14;;;27.21;30.16
33795;BME280;51430;52.242;21.118;2023-05-23T16:33:04;99899.20;;;27.20;29.87
33795;BME280;51430;52.242;21.118;2023-05-23T16:35:32;99898.04;;;27.35;30.33
33795;BME280;51430;52.242;21.118;2023-05-23T16:38:01;99896.98;;;27.17;30.25
33795;BME280;51430;52.242;21.118;2023-05-23T16:40:29;99894.38;;;26.98;30.68
33795;BME280;51430;52.242;21.118;2023-05-23T16:45:13;99895.86;;;26.52;31.46
33795;BME280;51430;52.242;21.118;2023-05-23T16:47:41;99894.79;;;26.55;31.86
33795;BME280;51430;52.242;21.118;2023-05-23T16:50:11;99896.14;;;26.62;31.99
33795;BME280;51430;52.242;21.118;2023-05-23T16:52:40;99896.82;;;26.70;32.12
33795;BME280;51430;52.242;21.118;2023-05-23T16:55:09;99898.70;;;26.68;31.95
33795;BME280;51430;52.242;21.118;2023-05-23T16:59:02;99899.92;;;26.44;31.76
33795;BME280;51430;52.242;21.118;2023-05-23T17:03:01;99900.52;;;26.24;32.72
33795;BME280;51430;52.242;21.118;2023-05-23T17:05:28;99901.77;;;25.87;32.70
33795;BME280;51430;52.242;21.118;2023-05-23T17:07:54;99898.33;;;25.71;33.21
33795;BME280;51430;52.242;21.118;2023-05-23T17:10:21;99901.31;;;25.77;33.48
33795;BME280;51430;52.242;21.118;2023-05-23T17:12:48;99899.52;;;25.75;33.42
33795;BME280;51430;52.242;21.118;2023-05-23T17:15:15;99901.98;;;25.75;33.57